POGODA: Poland

Lotnisko: Szczecin-Goleniow

METAR KOD: EPSC


METAR: EPSC 222100Z 04005KT 6000 BKN030 12/10 Q1012


BLOK
Pogoda METAR
222100Z
Dzien: 22, Godzina: 21:00 UTC.
04005KT
Wiatr z kierunku 040, o predkosci 9 km/h
6000
Widzialnosc pozioma 6000 m.
BKN030
5/8 - 7/8 pokrycia nieba, chmurami o podstawie: 900 metrow
12/10
Temperatura: powietrze 12°C, punkt rosy 10°C . Wilgotnosc wzgledna 83 %
Q1012
Cisnienie: 1012 hPa

Pogoda na innym lotnisku

Pogoda Gdansk-Rebiechowo WEATHER Poland  
Pogoda Katowice WEATHER Poland  
Pogoda Krakow WEATHER Poland  
Pogoda Poznan WEATHER Poland  
Pogoda Rzeszow-Jasionka WEATHER Poland  
Pogoda Szczecin WEATHER Poland  
Pogoda Warszawa-Okecie WEATHER Poland  
Pogoda Wroclaw Ii WEATHER Poland  

Pogoda w inny kraju

Strona startowa

(C) by GREGOR 2007
Ogłoszenia Towarzyskie